createdAt,value
2018-10-12T00:01:20.668Z,15.02
2018-10-12T00:03:49.482Z,15.04
2018-10-12T00:06:18.310Z,15.03
2018-10-12T00:08:47.143Z,15.14
2018-10-12T00:11:15.965Z,15.12
2018-10-12T00:13:44.987Z,15.13
2018-10-12T00:16:13.827Z,15.18
2018-10-12T00:18:42.687Z,15.06
2018-10-12T00:21:11.491Z,14.99
2018-10-12T00:23:40.327Z,14.95
2018-10-12T00:26:09.181Z,14.90
2018-10-12T00:28:38.046Z,14.89
2018-10-12T00:31:06.979Z,14.86
2018-10-12T00:33:35.816Z,14.84
2018-10-12T00:36:04.687Z,14.75
2018-10-12T00:38:33.551Z,14.73
2018-10-12T00:41:02.403Z,14.73
2018-10-12T00:43:31.232Z,14.77
2018-10-12T00:46:00.099Z,14.65
2018-10-12T00:48:28.946Z,14.60
2018-10-12T00:50:57.805Z,14.60
2018-10-12T00:53:26.727Z,14.53
2018-10-12T00:55:55.563Z,14.42
2018-10-12T00:58:24.379Z,14.31
2018-10-12T01:00:53.230Z,14.31
2018-10-12T01:03:22.055Z,14.30
2018-10-12T01:05:51.395Z,14.34
2018-10-12T01:08:20.739Z,14.28
2018-10-12T01:10:49.983Z,14.24
2018-10-12T01:13:19.295Z,14.23
2018-10-12T01:15:48.583Z,14.15
2018-10-12T01:18:17.836Z,14.10
2018-10-12T01:20:47.052Z,14.09
2018-10-12T01:23:16.351Z,14.10
2018-10-12T01:25:45.626Z,14.07
2018-10-12T01:28:14.838Z,14.02
2018-10-12T01:30:44.023Z,14.03
2018-10-12T01:33:13.217Z,14.10
2018-10-12T01:35:42.399Z,14.20
2018-10-12T01:38:11.388Z,14.18
2018-10-12T01:40:40.608Z,14.13
2018-10-12T01:43:09.786Z,14.09
2018-10-12T01:45:38.997Z,14.13
2018-10-12T01:48:08.229Z,14.08
2018-10-12T01:50:37.690Z,14.03
2018-10-12T01:53:06.964Z,14.01
2018-10-12T01:55:36.185Z,13.95
2018-10-12T01:58:05.376Z,13.85
2018-10-12T02:00:34.489Z,13.74
2018-10-12T02:03:03.693Z,13.72
2018-10-12T02:05:32.874Z,13.68
2018-10-12T02:08:02.080Z,13.63
2018-10-12T02:10:31.209Z,13.60
2018-10-12T02:13:00.282Z,13.54
2018-10-12T02:15:35.542Z,13.46
2018-10-12T02:18:04.829Z,13.60
2018-10-12T02:20:34.005Z,13.55
2018-10-12T02:23:03.090Z,13.55
2018-10-12T02:25:32.198Z,13.46
2018-10-12T02:28:01.439Z,13.41
2018-10-12T02:30:30.221Z,13.40
2018-10-12T02:32:59.001Z,13.40
2018-10-12T02:35:27.790Z,13.38
2018-10-12T02:37:56.561Z,13.38
2018-10-12T02:40:25.388Z,13.40
2018-10-12T02:42:54.165Z,13.35
2018-10-12T02:45:22.985Z,13.38
2018-10-12T02:47:51.764Z,13.35
2018-10-12T02:50:20.550Z,13.41
2018-10-12T02:52:49.333Z,13.54
2018-10-12T02:55:18.095Z,13.43
2018-10-12T02:57:46.936Z,13.34
2018-10-12T03:00:15.726Z,13.30
2018-10-12T03:02:44.533Z,13.25
2018-10-12T03:05:13.350Z,13.25
2018-10-12T03:07:42.370Z,13.27
2018-10-12T03:10:11.514Z,13.26
2018-10-12T03:12:40.709Z,13.23
2018-10-12T03:15:09.908Z,13.30
2018-10-12T03:17:39.004Z,13.25
2018-10-12T03:20:08.200Z,13.25
2018-10-12T03:22:37.281Z,13.22
2018-10-12T03:25:06.629Z,13.23
2018-10-12T03:27:46.549Z,13.21
2018-10-12T03:30:15.657Z,13.16
2018-10-12T03:32:44.765Z,13.09
2018-10-12T03:35:13.941Z,13.11
2018-10-12T03:37:43.123Z,13.07
2018-10-12T03:40:12.368Z,13.01
2018-10-12T03:42:41.602Z,12.93
2018-10-12T03:45:10.861Z,12.86
2018-10-12T03:47:40.133Z,12.79
2018-10-12T03:50:09.316Z,12.67
2018-10-12T03:52:38.145Z,12.64
2018-10-12T03:55:07.130Z,12.55
2018-10-12T03:57:35.957Z,12.48
2018-10-12T04:00:05.765Z,12.39
2018-10-12T04:02:34.565Z,12.34
2018-10-12T04:05:03.445Z,12.29
2018-10-12T04:07:32.223Z,12.24
2018-10-12T04:10:01.009Z,12.19
2018-10-12T04:12:29.849Z,12.16
2018-10-12T04:14:58.618Z,12.17
2018-10-12T04:17:27.430Z,12.18
2018-10-12T04:19:56.201Z,12.13
2018-10-12T04:22:26.185Z,12.18
2018-10-12T04:24:54.984Z,12.11
2018-10-12T04:27:23.774Z,12.02
2018-10-12T04:29:52.532Z,11.99
2018-10-12T04:32:21.379Z,11.93
2018-10-12T04:34:50.184Z,11.88
2018-10-12T04:37:19.022Z,11.88
2018-10-12T04:40:15.924Z,11.82
2018-10-12T04:42:44.829Z,11.86
2018-10-12T04:45:14.160Z,11.81
2018-10-12T04:47:43.006Z,11.70
2018-10-12T04:50:11.817Z,11.66
2018-10-12T04:52:40.778Z,11.67
2018-10-12T04:55:09.621Z,11.65
2018-10-12T04:57:38.442Z,11.65
2018-10-12T05:00:07.296Z,11.60
2018-10-12T05:02:36.125Z,11.64
2018-10-12T05:05:04.961Z,11.58
2018-10-12T05:07:33.799Z,11.61
2018-10-12T05:10:02.614Z,11.61
2018-10-12T05:12:31.417Z,11.56
2018-10-12T05:15:00.229Z,11.48
2018-10-12T05:17:29.001Z,11.58
2018-10-12T05:19:57.790Z,11.75
2018-10-12T05:22:26.559Z,11.66
2018-10-12T05:24:55.330Z,11.57
2018-10-12T05:27:24.116Z,11.55
2018-10-12T05:29:52.873Z,11.50
2018-10-12T05:32:21.648Z,11.55
2018-10-12T05:34:50.925Z,11.51
2018-10-12T05:37:20.089Z,11.49
2018-10-12T05:39:49.221Z,11.47
2018-10-12T05:42:18.642Z,11.47
2018-10-12T05:44:47.825Z,11.47
2018-10-12T05:47:17.025Z,11.48
2018-10-12T05:49:57.689Z,11.45
2018-10-12T05:52:26.904Z,11.43
2018-10-12T05:54:56.125Z,11.46
2018-10-12T05:57:25.339Z,11.47
2018-10-12T05:59:54.523Z,11.58
2018-10-12T06:02:23.901Z,11.52
2018-10-12T06:04:53.127Z,11.53
2018-10-12T06:07:22.386Z,11.52
2018-10-12T06:09:51.622Z,11.65
2018-10-12T06:12:20.934Z,11.59
2018-10-12T06:14:50.049Z,11.63
2018-10-12T06:17:19.017Z,11.63
2018-10-12T06:19:47.799Z,11.69
2018-10-12T06:22:16.596Z,11.78
2018-10-12T06:24:45.393Z,11.81
2018-10-12T06:27:14.233Z,11.86
2018-10-12T06:29:43.009Z,11.97
2018-10-12T06:32:11.816Z,12.10
2018-10-12T06:34:40.621Z,12.31
2018-10-12T06:37:09.412Z,12.40
2018-10-12T06:39:38.205Z,12.48
2018-10-12T06:42:07.000Z,12.56
2018-10-12T06:44:35.797Z,12.62
2018-10-12T06:47:04.602Z,12.67
2018-10-12T06:49:33.372Z,12.77
2018-10-12T06:52:02.161Z,12.86
2018-10-12T06:54:30.950Z,12.94
2018-10-12T06:56:59.725Z,13.05
2018-10-12T06:59:28.520Z,13.18
2018-10-12T07:01:57.361Z,13.30
2018-10-12T07:04:26.226Z,13.43
2018-10-12T07:06:55.012Z,13.62
2018-10-12T07:09:23.833Z,13.83
2018-10-12T07:11:52.621Z,14.10
2018-10-12T07:14:21.382Z,14.60
2018-10-12T07:16:50.181Z,15.07
2018-10-12T07:19:18.982Z,15.35
2018-10-12T07:21:47.775Z,15.54
2018-10-12T07:24:16.548Z,15.84
2018-10-12T07:26:45.453Z,16.46
2018-10-12T07:29:14.254Z,17.11
2018-10-12T07:31:43.017Z,17.76
2018-10-12T07:34:11.794Z,18.35
2018-10-12T07:36:40.561Z,18.76
2018-10-12T07:39:09.698Z,19.16
2018-10-12T07:41:38.505Z,19.62
2018-10-12T07:44:07.490Z,20.01
2018-10-12T07:46:36.322Z,20.39
2018-10-12T07:49:05.150Z,20.67
2018-10-12T07:51:33.930Z,20.87
2018-10-12T07:54:02.753Z,21.02
2018-10-12T07:56:31.554Z,21.05
2018-10-12T07:59:00.388Z,21.09
2018-10-12T08:01:29.163Z,21.18
2018-10-12T08:03:57.937Z,21.20
2018-10-12T08:06:27.174Z,21.31
2018-10-12T08:08:55.993Z,21.41
2018-10-12T08:11:24.770Z,21.47
2018-10-12T08:13:53.601Z,20.98
2018-10-12T08:16:22.320Z,21.07
2018-10-12T08:18:51.225Z,20.52
2018-10-12T08:21:20.063Z,20.59
2018-10-12T08:23:48.879Z,20.68
2018-10-12T08:26:17.674Z,20.39
2018-10-12T08:28:46.429Z,20.57
2018-10-12T08:31:15.234Z,20.75
2018-10-12T08:33:44.118Z,20.95
2018-10-12T08:36:13.022Z,20.82
2018-10-12T08:38:41.801Z,20.69
2018-10-12T08:41:10.575Z,20.90
2018-10-12T08:43:39.379Z,20.87
2018-10-12T08:46:08.181Z,20.88
2018-10-12T08:48:36.951Z,20.83
2018-10-12T08:51:05.718Z,20.91
2018-10-12T08:53:34.502Z,20.94
2018-10-12T08:56:03.348Z,21.19
2018-10-12T08:58:32.146Z,21.11
2018-10-12T09:01:00.930Z,21.29
2018-10-12T09:03:29.708Z,21.32
2018-10-12T09:05:58.469Z,21.24
2018-10-12T09:08:27.258Z,21.42
2018-10-12T09:10:56.033Z,21.50
2018-10-12T09:13:24.824Z,21.60
2018-10-12T09:15:53.590Z,21.85
2018-10-12T09:18:22.417Z,21.91
2018-10-12T09:20:51.218Z,21.83
2018-10-12T09:23:20.009Z,21.80
2018-10-12T09:25:48.820Z,22.07
2018-10-12T09:28:17.578Z,22.01
2018-10-12T09:30:46.406Z,22.13
2018-10-12T09:33:15.189Z,22.27
2018-10-12T09:35:43.989Z,22.43
2018-10-12T09:38:12.749Z,22.68
2018-10-12T09:40:41.526Z,22.86
2018-10-12T09:43:10.304Z,22.81
2018-10-12T09:45:39.197Z,22.98
2018-10-12T09:48:07.999Z,23.21
2018-10-12T09:50:36.785Z,23.24
2018-10-12T09:53:05.547Z,23.33
2018-10-12T09:55:34.308Z,23.46
2018-10-12T09:58:03.069Z,23.63
2018-10-12T10:00:37.081Z,23.87
2018-10-12T10:03:11.080Z,24.12
2018-10-12T10:05:39.844Z,23.94
2018-10-12T10:08:08.775Z,23.95
2018-10-12T10:10:37.452Z,24.17
2018-10-12T10:13:06.228Z,24.14
2018-10-12T10:15:35.050Z,24.08
2018-10-12T10:18:03.817Z,24.05
2018-10-12T10:20:32.628Z,23.95
2018-10-12T10:23:01.402Z,24.09
2018-10-12T10:25:30.197Z,24.15
2018-10-12T10:27:58.969Z,24.23
2018-10-12T10:30:27.724Z,24.52
2018-10-12T10:32:56.485Z,24.56
2018-10-12T10:35:25.253Z,24.50
2018-10-12T10:37:54.058Z,24.44
2018-10-12T10:40:22.833Z,24.70
2018-10-12T10:42:51.590Z,24.66
2018-10-12T10:45:20.381Z,25.17
2018-10-12T10:47:49.588Z,25.63
2018-10-12T10:50:18.348Z,25.78
2018-10-12T10:52:47.184Z,25.62
2018-10-12T10:55:16.010Z,25.44
2018-10-12T10:57:44.793Z,25.36
2018-10-12T11:00:13.733Z,25.50
2018-10-12T11:02:42.504Z,25.50
2018-10-12T11:05:11.359Z,25.43
2018-10-12T11:07:40.146Z,25.42
2018-10-12T11:10:08.977Z,25.68
2018-10-12T11:12:37.858Z,25.87
2018-10-12T11:15:07.255Z,26.23
2018-10-12T11:17:36.052Z,26.67
2018-10-12T11:20:04.906Z,26.18
2018-10-12T11:22:33.665Z,26.62
2018-10-12T11:25:02.480Z,26.62
2018-10-12T11:27:31.254Z,26.35
2018-10-12T11:30:00.076Z,26.02
2018-10-12T11:32:28.829Z,25.98
2018-10-12T11:34:57.627Z,26.02
2018-10-12T11:37:26.386Z,26.23
2018-10-12T11:39:55.217Z,26.66
2018-10-12T11:42:28.413Z,26.30
2018-10-12T11:44:57.241Z,26.34
2018-10-12T11:47:25.970Z,26.81
2018-10-12T11:49:54.741Z,27.19
2018-10-12T11:52:23.524Z,26.38
2018-10-12T11:54:52.301Z,26.28
2018-10-12T11:57:21.061Z,26.69
2018-10-12T11:59:49.848Z,26.41
2018-10-12T12:02:18.719Z,26.43
2018-10-12T12:04:47.480Z,26.43
2018-10-12T12:07:16.261Z,26.60
2018-10-12T12:09:45.033Z,26.88
2018-10-12T12:12:13.813Z,27.31
2018-10-12T12:14:42.594Z,27.43
2018-10-12T12:17:11.360Z,27.21
2018-10-12T12:19:40.133Z,27.28
2018-10-12T12:22:08.914Z,27.68
2018-10-12T12:24:37.683Z,27.74
2018-10-12T12:27:06.513Z,27.78
2018-10-12T12:29:35.297Z,27.88
2018-10-12T12:32:04.115Z,27.30
2018-10-12T12:34:32.935Z,27.08
2018-10-12T12:37:01.740Z,27.19
2018-10-12T12:39:30.532Z,27.39
2018-10-12T12:41:59.333Z,27.49
2018-10-12T12:44:28.325Z,27.78
2018-10-12T12:46:57.112Z,27.74
2018-10-12T12:49:26.154Z,27.80
2018-10-12T12:51:54.710Z,29.08
2018-10-12T12:54:23.577Z,29.46
2018-10-12T12:56:52.368Z,29.78
2018-10-12T12:59:21.130Z,29.80
2018-10-12T13:01:49.914Z,30.36
2018-10-12T13:04:18.677Z,30.53
2018-10-12T13:06:47.489Z,30.35
2018-10-12T13:09:16.278Z,30.28
2018-10-12T13:11:45.074Z,29.57
2018-10-12T13:14:13.844Z,29.60
2018-10-12T13:16:42.648Z,29.61
2018-10-12T13:19:11.444Z,28.69
2018-10-12T13:21:40.205Z,29.14
2018-10-12T13:24:08.980Z,28.93
2018-10-12T13:26:37.765Z,28.65
2018-10-12T13:29:06.816Z,28.67
2018-10-12T13:31:35.581Z,28.43
2018-10-12T13:34:04.381Z,28.10
2018-10-12T13:36:33.242Z,28.09
2018-10-12T13:39:02.025Z,27.81
2018-10-12T13:41:30.825Z,27.78
2018-10-12T13:43:59.611Z,27.49
2018-10-12T13:46:28.436Z,27.89
2018-10-12T13:48:57.245Z,28.08
2018-10-12T13:51:26.391Z,28.38
2018-10-12T13:53:55.208Z,28.28
2018-10-12T13:56:23.981Z,28.04
2018-10-12T13:58:52.832Z,27.95
2018-10-12T14:01:21.603Z,27.88
2018-10-12T14:03:50.378Z,28.14
2018-10-12T14:06:19.185Z,28.18
2018-10-12T14:08:47.973Z,27.43
2018-10-12T14:11:16.753Z,26.72
2018-10-12T14:13:45.548Z,27.38
2018-10-12T14:16:14.590Z,27.75
2018-10-12T14:18:43.458Z,27.53
2018-10-12T14:21:12.242Z,27.22
2018-10-12T14:23:47.397Z,27.03
2018-10-12T14:26:16.229Z,26.89
2018-10-12T14:28:45.053Z,27.30
2018-10-12T14:31:13.854Z,27.44
2018-10-12T14:33:42.673Z,27.54
2018-10-12T14:36:11.456Z,27.61
2018-10-12T14:38:40.233Z,27.73
2018-10-12T14:41:09.030Z,27.67
2018-10-12T14:43:37.812Z,27.96
2018-10-12T14:46:06.937Z,27.57
2018-10-12T14:48:35.711Z,27.45
2018-10-12T14:51:04.504Z,26.97
2018-10-12T14:53:33.357Z,27.16
2018-10-12T14:56:02.105Z,27.47
2018-10-12T14:58:37.383Z,27.12
2018-10-12T15:01:06.206Z,27.21
2018-10-12T15:03:34.988Z,27.27
2018-10-12T15:06:03.880Z,26.94
2018-10-12T15:08:32.693Z,26.58
2018-10-12T15:11:01.531Z,26.76
2018-10-12T15:13:30.337Z,26.53
2018-10-12T15:15:59.132Z,26.08
2018-10-12T15:18:27.925Z,26.29
2018-10-12T15:20:56.771Z,26.41
2018-10-12T15:23:25.514Z,26.65
2018-10-12T15:25:54.301Z,26.59
2018-10-12T15:28:23.069Z,26.65
2018-10-12T15:30:51.878Z,26.79
2018-10-12T15:33:20.661Z,26.83
2018-10-12T15:35:49.484Z,27.00
2018-10-12T15:38:18.273Z,27.22
2018-10-12T15:40:47.147Z,27.56
2018-10-12T15:43:16.038Z,27.65
2018-10-12T15:45:44.804Z,27.65
2018-10-12T15:48:13.609Z,27.32
2018-10-12T15:50:42.422Z,26.94
2018-10-12T15:53:11.201Z,26.51
2018-10-12T15:55:40.027Z,25.92
2018-10-12T15:58:08.953Z,25.32
2018-10-12T16:00:37.734Z,24.82
2018-10-12T16:03:06.509Z,24.39
2018-10-12T16:05:35.301Z,24.03
2018-10-12T16:08:04.134Z,23.70
2018-10-12T16:10:33.033Z,23.48
2018-10-12T16:13:01.846Z,23.14
2018-10-12T16:15:30.617Z,22.88
2018-10-12T16:17:59.393Z,22.62
2018-10-12T16:20:28.190Z,22.40
2018-10-12T16:22:56.973Z,22.18
2018-10-12T16:26:06.047Z,22.06
2018-10-12T16:28:34.861Z,21.77
2018-10-12T16:31:03.694Z,21.53
2018-10-12T16:33:32.470Z,21.40
2018-10-12T16:36:01.394Z,21.24
2018-10-12T16:38:30.118Z,21.12
2018-10-12T16:40:58.904Z,21.04
2018-10-12T16:43:27.694Z,20.90
2018-10-12T16:45:56.493Z,20.74
2018-10-12T16:48:25.298Z,20.60
2018-10-12T16:50:54.129Z,20.48
2018-10-12T16:53:23.001Z,20.39
2018-10-12T16:55:51.773Z,20.23
2018-10-12T16:58:20.629Z,20.11
2018-10-12T17:00:49.363Z,20.03
2018-10-12T17:03:18.136Z,19.99
2018-10-12T17:05:46.917Z,19.94
2018-10-12T17:08:15.682Z,19.82
2018-10-12T17:10:44.480Z,19.67
2018-10-12T17:13:13.249Z,19.52
2018-10-12T17:15:42.030Z,19.36
2018-10-12T17:18:10.802Z,19.25
2018-10-12T17:20:39.602Z,19.17
2018-10-12T17:23:08.817Z,19.10
2018-10-12T17:25:37.593Z,18.96
2018-10-12T17:28:07.337Z,18.90
2018-10-12T17:30:36.231Z,18.81
2018-10-12T17:33:04.978Z,18.73
2018-10-12T17:35:33.765Z,18.69
2018-10-12T17:38:02.544Z,18.66
2018-10-12T17:40:31.337Z,18.57
2018-10-12T17:43:00.174Z,18.53
2018-10-12T17:45:28.964Z,18.48
2018-10-12T17:47:57.751Z,18.44
2018-10-12T17:50:26.601Z,18.35
2018-10-12T17:52:55.389Z,18.26
2018-10-12T17:55:24.173Z,18.24
2018-10-12T17:57:52.942Z,18.17
2018-10-12T18:00:21.812Z,18.14
2018-10-12T18:02:50.565Z,18.13
2018-10-12T18:05:19.407Z,18.11
2018-10-12T18:07:48.217Z,18.24
2018-10-12T18:10:17.009Z,18.17
2018-10-12T18:12:45.808Z,18.29
2018-10-12T18:15:15.040Z,18.36
2018-10-12T18:17:43.844Z,18.31
2018-10-12T18:20:13.252Z,18.24
2018-10-12T18:22:42.070Z,18.17
2018-10-12T18:25:10.882Z,18.07
2018-10-12T18:27:39.670Z,17.97
2018-10-12T18:30:08.461Z,17.86
2018-10-12T18:32:37.263Z,17.75
2018-10-12T18:35:06.048Z,17.81
2018-10-12T18:37:34.831Z,17.78
2018-10-12T18:40:03.669Z,17.63
2018-10-12T18:42:32.496Z,17.56
2018-10-12T18:45:01.301Z,17.46
2018-10-12T18:47:30.119Z,17.34
2018-10-12T18:49:58.965Z,17.29
2018-10-12T18:52:27.749Z,17.21
2018-10-12T18:54:56.537Z,17.18
2018-10-12T18:57:25.413Z,17.05
2018-10-12T18:59:54.209Z,16.94
2018-10-12T19:02:22.984Z,16.87
2018-10-12T19:04:51.829Z,16.85
2018-10-12T19:07:20.626Z,16.75
2018-10-12T19:09:49.389Z,16.72
2018-10-12T19:12:18.213Z,16.69
2018-10-12T19:14:47.021Z,16.65
2018-10-12T19:17:15.819Z,16.60
2018-10-12T19:19:44.680Z,16.63
2018-10-12T19:22:13.421Z,16.62
2018-10-12T19:24:42.314Z,16.59
2018-10-12T19:27:11.098Z,16.55
2018-10-12T19:29:39.922Z,16.53
2018-10-12T19:32:08.674Z,16.48
2018-10-12T19:34:37.525Z,16.47
2018-10-12T19:37:06.611Z,16.43
2018-10-12T19:39:35.389Z,16.38
2018-10-12T19:42:04.178Z,16.31
2018-10-12T19:44:32.981Z,16.28
2018-10-12T19:47:01.805Z,16.24
2018-10-12T19:49:30.585Z,16.28
2018-10-12T19:51:59.394Z,16.21
2018-10-12T19:54:28.194Z,16.13
2018-10-12T19:56:56.966Z,16.20
2018-10-12T19:59:25.806Z,16.42
2018-10-12T20:01:54.580Z,16.31
2018-10-12T20:04:23.363Z,16.19
2018-10-12T20:06:52.185Z,16.10
2018-10-12T20:09:20.954Z,16.29
2018-10-12T20:11:49.737Z,16.13
2018-10-12T20:14:18.545Z,16.03
2018-10-12T20:16:47.368Z,15.92
2018-10-12T20:19:16.146Z,15.77
2018-10-12T20:21:44.939Z,15.72
2018-10-12T20:24:13.734Z,15.67
2018-10-12T20:26:42.536Z,15.61
2018-10-12T20:29:11.325Z,15.55
2018-10-12T20:31:40.241Z,15.50
2018-10-12T20:34:08.953Z,15.44
2018-10-12T20:36:38.121Z,15.53
2018-10-12T20:39:09.588Z,15.39
2018-10-12T20:41:38.889Z,15.50
2018-10-12T20:44:08.301Z,15.35
2018-10-12T20:46:37.701Z,15.24
2018-10-12T20:49:06.840Z,15.19
2018-10-12T20:51:36.109Z,15.31
2018-10-12T20:54:05.227Z,15.22
2018-10-12T20:56:34.364Z,15.18
2018-10-12T20:59:03.647Z,15.04
2018-10-12T21:01:32.748Z,14.94
2018-10-12T21:04:02.060Z,14.93
2018-10-12T21:06:31.369Z,14.82
2018-10-12T21:09:00.520Z,14.75
2018-10-12T21:11:29.669Z,14.73
2018-10-12T21:13:58.827Z,14.73
2018-10-12T21:16:27.896Z,14.68
2018-10-12T21:18:57.009Z,14.68
2018-10-12T21:21:26.119Z,14.65
2018-10-12T21:23:55.285Z,14.59
2018-10-12T21:26:24.406Z,14.56
2018-10-12T21:28:53.473Z,14.52
2018-10-12T21:31:22.689Z,14.54
2018-10-12T21:33:51.769Z,14.48
2018-10-12T21:36:20.886Z,14.45
2018-10-12T21:38:50.265Z,14.94
2018-10-12T21:41:19.378Z,15.09
2018-10-12T21:43:48.622Z,14.88
2018-10-12T21:46:17.775Z,14.77
2018-10-12T21:48:46.919Z,14.65
2018-10-12T21:51:16.062Z,14.74
2018-10-12T21:53:45.235Z,14.94
2018-10-12T21:56:14.421Z,14.86
2018-10-12T21:58:43.553Z,14.71
2018-10-12T22:01:12.648Z,14.68
2018-10-12T22:03:41.746Z,14.74
2018-10-12T22:06:10.851Z,14.77
2018-10-12T22:08:45.090Z,14.85
2018-10-12T22:11:14.247Z,14.76
2018-10-12T22:13:43.618Z,14.74
2018-10-12T22:16:12.729Z,14.65
2018-10-12T22:18:41.840Z,14.88
2018-10-12T22:21:10.936Z,14.74
2018-10-12T22:23:40.008Z,14.54
2018-10-12T22:26:09.172Z,14.40
2018-10-12T22:28:38.309Z,14.55
2018-10-12T22:31:07.545Z,14.56
2018-10-12T22:33:36.696Z,14.53
2018-10-12T22:36:05.817Z,14.41
2018-10-12T22:38:34.965Z,14.33
2018-10-12T22:41:04.200Z,14.42
2018-10-12T22:43:33.305Z,14.29
2018-10-12T22:46:02.530Z,14.15
2018-10-12T22:48:31.794Z,14.06
2018-10-12T22:51:00.901Z,14.04
2018-10-12T22:53:29.997Z,13.95
2018-10-12T22:55:59.133Z,13.89
2018-10-12T22:58:28.341Z,13.86
2018-10-12T23:00:57.521Z,13.83
2018-10-12T23:03:26.593Z,13.93
2018-10-12T23:05:55.816Z,13.98
2018-10-12T23:08:25.085Z,13.88
2018-10-12T23:10:54.365Z,13.83
2018-10-12T23:13:23.521Z,13.77
2018-10-12T23:15:52.861Z,13.77
2018-10-12T23:18:21.972Z,13.91
2018-10-12T23:20:51.061Z,13.81
2018-10-12T23:23:20.161Z,13.76
2018-10-12T23:25:49.312Z,13.72
2018-10-12T23:28:18.491Z,13.71
2018-10-12T23:30:47.649Z,13.71
2018-10-12T23:33:27.609Z,13.71
2018-10-12T23:35:56.693Z,13.66
2018-10-12T23:38:25.929Z,13.67
2018-10-12T23:40:55.191Z,13.71
2018-10-12T23:43:24.285Z,13.70
2018-10-12T23:45:53.568Z,13.74
2018-10-12T23:48:22.672Z,13.76
2018-10-12T23:50:51.792Z,13.83
2018-10-12T23:53:20.911Z,13.85
2018-10-12T23:55:50.223Z,13.90
2018-10-12T23:58:19.460Z,13.99
